sensor_id;sensor_type;location;lat;lon;timestamp;P1;durP1;ratioP1;P2;durP2;ratioP2
18576;SDS011;9418;52.694;13.294;2024-02-15T00:02:15;4.60;;;4.20;;
18576;SDS011;9418;52.694;13.294;2024-02-15T00:04:41;6.03;;;4.37;;
18576;SDS011;9418;52.694;13.294;2024-02-15T00:07:08;6.13;;;3.83;;
18576;SDS011;9418;52.694;13.294;2024-02-15T00:09:35;4.93;;;3.93;;
18576;SDS011;9418;52.694;13.294;2024-02-15T00:12:01;5.03;;;4.60;;
18576;SDS011;9418;52.694;13.294;2024-02-15T00:14:28;4.20;;;3.90;;
18576;SDS011;9418;52.694;13.294;2024-02-15T00:16:56;4.27;;;3.97;;
18576;SDS011;9418;52.694;13.294;2024-02-15T00:19:24;5.13;;;4.07;;
18576;SDS011;9418;52.694;13.294;2024-02-15T00:21:54;5.60;;;3.70;;
18576;SDS011;9418;52.694;13.294;2024-02-15T00:24:21;5.40;;;4.47;;
18576;SDS011;9418;52.694;13.294;2024-02-15T00:26:48;5.63;;;4.30;;
18576;SDS011;9418;52.694;13.294;2024-02-15T00:29:15;4.80;;;3.83;;
18576;SDS011;9418;52.694;13.294;2024-02-15T00:31:43;4.47;;;4.00;;
18576;SDS011;9418;52.694;13.294;2024-02-15T00:34:09;8.60;;;4.03;;
18576;SDS011;9418;52.694;13.294;2024-02-15T00:36:37;8.93;;;4.13;;
18576;SDS011;9418;52.694;13.294;2024-02-15T00:39:07;5.73;;;3.97;;
18576;SDS011;9418;52.694;13.294;2024-02-15T00:41:34;4.40;;;4.00;;
18576;SDS011;9418;52.694;13.294;2024-02-15T00:44:00;6.63;;;4.07;;
18576;SDS011;9418;52.694;13.294;2024-02-15T00:46:27;4.57;;;4.23;;
18576;SDS011;9418;52.694;13.294;2024-02-15T00:48:54;4.73;;;4.20;;
18576;SDS011;9418;52.694;13.294;2024-02-15T00:51:20;4.53;;;4.10;;
18576;SDS011;9418;52.694;13.294;2024-02-15T00:53:48;4.10;;;3.80;;
18576;SDS011;9418;52.694;13.294;2024-02-15T00:56:15;8.27;;;5.10;;
18576;SDS011;9418;52.694;13.294;2024-02-15T00:58:42;5.53;;;4.97;;
18576;SDS011;9418;52.694;13.294;2024-02-15T01:01:09;4.60;;;4.20;;
18576;SDS011;9418;52.694;13.294;2024-02-15T01:03:36;5.27;;;4.87;;
18576;SDS011;9418;52.694;13.294;2024-02-15T01:06:03;4.97;;;4.57;;
18576;SDS011;9418;52.694;13.294;2024-02-15T01:08:30;4.93;;;4.53;;
18576;SDS011;9418;52.694;13.294;2024-02-15T01:10:59;6.53;;;5.20;;
18576;SDS011;9418;52.694;13.294;2024-02-15T01:13:25;7.03;;;5.13;;
18576;SDS011;9418;52.694;13.294;2024-02-15T01:15:52;6.17;;;5.57;;
18576;SDS011;9418;52.694;13.294;2024-02-15T01:18:18;5.77;;;5.27;;
18576;SDS011;9418;52.694;13.294;2024-02-15T01:20:45;5.37;;;4.90;;
18576;SDS011;9418;52.694;13.294;2024-02-15T01:23:11;7.13;;;5.80;;
18576;SDS011;9418;52.694;13.294;2024-02-15T01:25:38;5.80;;;5.30;;
18576;SDS011;9418;52.694;13.294;2024-02-15T01:28:06;5.60;;;5.10;;
18576;SDS011;9418;52.694;13.294;2024-02-15T01:30:33;7.53;;;5.80;;
18576;SDS011;9418;52.694;13.294;2024-02-15T01:32:59;7.23;;;5.90;;
18576;SDS011;9418;52.694;13.294;2024-02-15T01:35:26;6.80;;;5.47;;
18576;SDS011;9418;52.694;13.294;2024-02-15T01:37:53;9.53;;;5.30;;
18576;SDS011;9418;52.694;13.294;2024-02-15T01:40:20;6.20;;;5.60;;
18576;SDS011;9418;52.694;13.294;2024-02-15T01:42:46;5.97;;;5.43;;
18576;SDS011;9418;52.694;13.294;2024-02-15T01:45:16;7.13;;;5.47;;
18576;SDS011;9418;52.694;13.294;2024-02-15T01:47:42;5.57;;;5.07;;
18576;SDS011;9418;52.694;13.294;2024-02-15T01:50:10;6.40;;;5.90;;
18576;SDS011;9418;52.694;13.294;2024-02-15T01:52:37;6.93;;;5.80;;
18576;SDS011;9418;52.694;13.294;2024-02-15T01:55:07;6.67;;;5.57;;
18576;SDS011;9418;52.694;13.294;2024-02-15T01:57:34;5.90;;;5.40;;
18576;SDS011;9418;52.694;13.294;2024-02-15T02:00:03;6.10;;;5.60;;
18576;SDS011;9418;52.694;13.294;2024-02-15T02:02:31;7.27;;;5.70;;
18576;SDS011;9418;52.694;13.294;2024-02-15T02:05:01;7.50;;;6.10;;
18576;SDS011;9418;52.694;13.294;2024-02-15T02:07:28;5.60;;;5.20;;
18576;SDS011;9418;52.694;13.294;2024-02-15T02:09:55;5.67;;;5.17;;
18576;SDS011;9418;52.694;13.294;2024-02-15T02:12:21;7.90;;;5.77;;
18576;SDS011;9418;52.694;13.294;2024-02-15T02:14:49;4.80;;;4.50;;
18576;SDS011;9418;52.694;13.294;2024-02-15T02:17:16;5.73;;;5.17;;
18576;SDS011;9418;52.694;13.294;2024-02-15T02:19:46;5.70;;;5.30;;
18576;SDS011;9418;52.694;13.294;2024-02-15T02:22:14;6.33;;;5.10;;
18576;SDS011;9418;52.694;13.294;2024-02-15T02:24:44;5.20;;;4.80;;
18576;SDS011;9418;52.694;13.294;2024-02-15T02:27:28;6.10;;;5.60;;
18576;SDS011;9418;52.694;13.294;2024-02-15T02:29:56;5.83;;;5.33;;
18576;SDS011;9418;52.694;13.294;2024-02-15T02:32:22;7.20;;;5.60;;
18576;SDS011;9418;52.694;13.294;2024-02-15T02:34:49;5.77;;;5.23;;
18576;SDS011;9418;52.694;13.294;2024-02-15T02:37:15;6.83;;;6.30;;
18576;SDS011;9418;52.694;13.294;2024-02-15T02:39:42;6.27;;;5.60;;
18576;SDS011;9418;52.694;13.294;2024-02-15T02:42:10;6.10;;;5.60;;
18576;SDS011;9418;52.694;13.294;2024-02-15T02:44:37;7.10;;;6.40;;
18576;SDS011;9418;52.694;13.294;2024-02-15T02:47:04;5.90;;;5.40;;
18576;SDS011;9418;52.694;13.294;2024-02-15T02:49:31;6.10;;;5.53;;
18576;SDS011;9418;52.694;13.294;2024-02-15T02:51:57;6.53;;;5.93;;
18576;SDS011;9418;52.694;13.294;2024-02-15T02:54:24;7.03;;;5.50;;
18576;SDS011;9418;52.694;13.294;2024-02-15T02:56:50;9.33;;;6.33;;
18576;SDS011;9418;52.694;13.294;2024-02-15T02:59:18;6.53;;;5.83;;
18576;SDS011;9418;52.694;13.294;2024-02-15T03:01:45;6.40;;;5.77;;
18576;SDS011;9418;52.694;13.294;2024-02-15T03:04:11;9.80;;;6.40;;
18576;SDS011;9418;52.694;13.294;2024-02-15T03:06:42;7.60;;;6.73;;
18576;SDS011;9418;52.694;13.294;2024-02-15T03:09:08;8.37;;;7.53;;
18576;SDS011;9418;52.694;13.294;2024-02-15T03:11:35;6.23;;;5.60;;
18576;SDS011;9418;52.694;13.294;2024-02-15T03:14:02;7.10;;;6.50;;
18576;SDS011;9418;52.694;13.294;2024-02-15T03:16:31;7.37;;;6.57;;
18576;SDS011;9418;52.694;13.294;2024-02-15T03:18:58;10.23;;;7.07;;
18576;SDS011;9418;52.694;13.294;2024-02-15T03:21:27;8.17;;;7.17;;
18576;SDS011;9418;52.694;13.294;2024-02-15T03:23:54;6.93;;;6.33;;
18576;SDS011;9418;52.694;13.294;2024-02-15T03:26:28;6.40;;;5.70;;
18576;SDS011;9418;52.694;13.294;2024-02-15T03:28:58;6.77;;;6.17;;
18576;SDS011;9418;52.694;13.294;2024-02-15T03:31:25;6.30;;;5.80;;
18576;SDS011;9418;52.694;13.294;2024-02-15T03:33:53;6.17;;;5.67;;
18576;SDS011;9418;52.694;13.294;2024-02-15T03:36:19;7.30;;;6.70;;
18576;SDS011;9418;52.694;13.294;2024-02-15T03:38:46;5.73;;;5.23;;
18576;SDS011;9418;52.694;13.294;2024-02-15T03:41:13;6.63;;;6.10;;
18576;SDS011;9418;52.694;13.294;2024-02-15T03:43:40;6.43;;;5.40;;
18576;SDS011;9418;52.694;13.294;2024-02-15T03:46:06;11.33;;;5.70;;
18576;SDS011;9418;52.694;13.294;2024-02-15T03:48:37;5.93;;;5.43;;
18576;SDS011;9418;52.694;13.294;2024-02-15T03:51:05;6.70;;;6.10;;
18576;SDS011;9418;52.694;13.294;2024-02-15T03:53:32;6.50;;;6.00;;
18576;SDS011;9418;52.694;13.294;2024-02-15T03:55:58;7.13;;;6.50;;
18576;SDS011;9418;52.694;13.294;2024-02-15T03:58:25;6.73;;;6.17;;
18576;SDS011;9418;52.694;13.294;2024-02-15T04:00:52;8.60;;;7.00;;
18576;SDS011;9418;52.694;13.294;2024-02-15T04:03:20;7.20;;;6.50;;
18576;SDS011;9418;52.694;13.294;2024-02-15T04:05:47;6.40;;;5.90;;
18576;SDS011;9418;52.694;13.294;2024-02-15T04:08:15;6.43;;;5.83;;
18576;SDS011;9418;52.694;13.294;2024-02-15T04:10:43;7.10;;;6.50;;
18576;SDS011;9418;52.694;13.294;2024-02-15T04:13:11;6.50;;;5.90;;
18576;SDS011;9418;52.694;13.294;2024-02-15T04:15:37;6.87;;;6.17;;
18576;SDS011;9418;52.694;13.294;2024-02-15T04:18:04;7.63;;;5.67;;
18576;SDS011;9418;52.694;13.294;2024-02-15T04:20:30;7.03;;;6.43;;
18576;SDS011;9418;52.694;13.294;2024-02-15T04:22:57;7.00;;;6.30;;
18576;SDS011;9418;52.694;13.294;2024-02-15T04:25:26;6.40;;;5.90;;
18576;SDS011;9418;52.694;13.294;2024-02-15T04:27:53;9.50;;;6.80;;
18576;SDS011;9418;52.694;13.294;2024-02-15T04:30:19;6.77;;;6.10;;
18576;SDS011;9418;52.694;13.294;2024-02-15T04:32:48;6.60;;;6.00;;
18576;SDS011;9418;52.694;13.294;2024-02-15T04:35:16;6.13;;;5.63;;
18576;SDS011;9418;52.694;13.294;2024-02-15T04:37:44;8.87;;;7.50;;
18576;SDS011;9418;52.694;13.294;2024-02-15T04:40:12;8.50;;;7.70;;
18576;SDS011;9418;52.694;13.294;2024-02-15T04:42:40;7.73;;;7.03;;
18576;SDS011;9418;52.694;13.294;2024-02-15T04:45:09;8.00;;;7.23;;
18576;SDS011;9418;52.694;13.294;2024-02-15T04:47:38;7.47;;;6.77;;
18576;SDS011;9418;52.694;13.294;2024-02-15T04:50:06;8.27;;;7.47;;
18576;SDS011;9418;52.694;13.294;2024-02-15T04:52:34;8.40;;;7.53;;
18576;SDS011;9418;52.694;13.294;2024-02-15T04:55:01;8.97;;;7.57;;
18576;SDS011;9418;52.694;13.294;2024-02-15T04:57:30;8.27;;;7.50;;
18576;SDS011;9418;52.694;13.294;2024-02-15T04:59:59;7.80;;;7.10;;
18576;SDS011;9418;52.694;13.294;2024-02-15T05:02:26;9.00;;;7.80;;
18576;SDS011;9418;52.694;13.294;2024-02-15T05:04:52;7.90;;;7.07;;
18576;SDS011;9418;52.694;13.294;2024-02-15T05:07:21;10.10;;;8.63;;
18576;SDS011;9418;52.694;13.294;2024-02-15T05:09:48;10.93;;;7.77;;
18576;SDS011;9418;52.694;13.294;2024-02-15T05:12:21;8.20;;;7.50;;
18576;SDS011;9418;52.694;13.294;2024-02-15T05:14:48;9.03;;;8.23;;
18576;SDS011;9418;52.694;13.294;2024-02-15T05:17:17;10.20;;;8.60;;
18576;SDS011;9418;52.694;13.294;2024-02-15T05:19:43;7.93;;;7.23;;
18576;SDS011;9418;52.694;13.294;2024-02-15T05:22:11;8.57;;;7.67;;
18576;SDS011;9418;52.694;13.294;2024-02-15T05:24:38;8.10;;;7.40;;
18576;SDS011;9418;52.694;13.294;2024-02-15T05:27:05;9.43;;;8.53;;
18576;SDS011;9418;52.694;13.294;2024-02-15T05:29:32;9.70;;;8.80;;
18576;SDS011;9418;52.694;13.294;2024-02-15T05:31:59;9.40;;;8.50;;
18576;SDS011;9418;52.694;13.294;2024-02-15T05:34:27;9.13;;;8.33;;
18576;SDS011;9418;52.694;13.294;2024-02-15T05:36:54;9.37;;;8.47;;
18576;SDS011;9418;52.694;13.294;2024-02-15T05:39:21;9.60;;;8.60;;
18576;SDS011;9418;52.694;13.294;2024-02-15T05:41:48;8.90;;;7.97;;
18576;SDS011;9418;52.694;13.294;2024-02-15T05:44:14;9.57;;;8.70;;
18576;SDS011;9418;52.694;13.294;2024-02-15T05:46:45;9.07;;;8.27;;
18576;SDS011;9418;52.694;13.294;2024-02-15T05:49:12;10.07;;;9.00;;
18576;SDS011;9418;52.694;13.294;2024-02-15T05:51:43;9.00;;;8.10;;
18576;SDS011;9418;52.694;13.294;2024-02-15T05:54:12;9.30;;;8.40;;
18576;SDS011;9418;52.694;13.294;2024-02-15T05:56:39;12.53;;;8.57;;
18576;SDS011;9418;52.694;13.294;2024-02-15T05:59:07;10.10;;;8.97;;
18576;SDS011;9418;52.694;13.294;2024-02-15T06:01:35;9.43;;;8.53;;
18576;SDS011;9418;52.694;13.294;2024-02-15T06:04:02;9.67;;;8.73;;
18576;SDS011;9418;52.694;13.294;2024-02-15T06:06:33;9.17;;;8.27;;
18576;SDS011;9418;52.694;13.294;2024-02-15T06:09:01;10.23;;;9.03;;
18576;SDS011;9418;52.694;13.294;2024-02-15T06:11:29;9.90;;;9.10;;
18576;SDS011;9418;52.694;13.294;2024-02-15T06:13:56;11.23;;;9.80;;
18576;SDS011;9418;52.694;13.294;2024-02-15T06:16:22;10.00;;;9.00;;
18576;SDS011;9418;52.694;13.294;2024-02-15T06:18:49;10.33;;;9.27;;
18576;SDS011;9418;52.694;13.294;2024-02-15T06:21:15;9.97;;;9.07;;
18576;SDS011;9418;52.694;13.294;2024-02-15T06:23:43;13.50;;;9.43;;
18576;SDS011;9418;52.694;13.294;2024-02-15T06:26:11;12.30;;;11.03;;
18576;SDS011;9418;52.694;13.294;2024-02-15T06:28:38;11.73;;;10.60;;
18576;SDS011;9418;52.694;13.294;2024-02-15T06:31:22;10.20;;;9.17;;
18576;SDS011;9418;52.694;13.294;2024-02-15T06:34:06;12.70;;;9.30;;
18576;SDS011;9418;52.694;13.294;2024-02-15T06:36:52;9.67;;;8.77;;
18576;SDS011;9418;52.694;13.294;2024-02-15T06:39:37;8.93;;;8.13;;
18576;SDS011;9418;52.694;13.294;2024-02-15T06:42:07;8.93;;;8.03;;
18576;SDS011;9418;52.694;13.294;2024-02-15T06:44:34;9.67;;;8.67;;
18576;SDS011;9418;52.694;13.294;2024-02-15T06:47:00;8.93;;;8.03;;
18576;SDS011;9418;52.694;13.294;2024-02-15T06:49:27;8.87;;;7.40;;
18576;SDS011;9418;52.694;13.294;2024-02-15T06:51:54;10.13;;;8.90;;
18576;SDS011;9418;52.694;13.294;2024-02-15T06:54:21;9.90;;;8.87;;
18576;SDS011;9418;52.694;13.294;2024-02-15T06:56:48;8.37;;;7.30;;
18576;SDS011;9418;52.694;13.294;2024-02-15T06:59:18;8.20;;;7.40;;
18576;SDS011;9418;52.694;13.294;2024-02-15T07:01:46;10.23;;;7.67;;
18576;SDS011;9418;52.694;13.294;2024-02-15T07:04:13;9.00;;;7.60;;
18576;SDS011;9418;52.694;13.294;2024-02-15T07:06:39;8.40;;;7.60;;
18576;SDS011;9418;52.694;13.294;2024-02-15T07:09:09;8.00;;;7.30;;
18576;SDS011;9418;52.694;13.294;2024-02-15T07:11:36;8.50;;;7.60;;
18576;SDS011;9418;52.694;13.294;2024-02-15T07:14:03;7.53;;;6.90;;
18576;SDS011;9418;52.694;13.294;2024-02-15T07:16:33;8.27;;;7.47;;
18576;SDS011;9418;52.694;13.294;2024-02-15T07:19:02;7.90;;;7.07;;
18576;SDS011;9418;52.694;13.294;2024-02-15T07:21:29;7.63;;;6.90;;
18576;SDS011;9418;52.694;13.294;2024-02-15T07:23:56;7.47;;;6.87;;
18576;SDS011;9418;52.694;13.294;2024-02-15T07:26:24;11.53;;;7.50;;
18576;SDS011;9418;52.694;13.294;2024-02-15T07:28:51;7.87;;;7.07;;
18576;SDS011;9418;52.694;13.294;2024-02-15T07:31:18;9.20;;;8.30;;
18576;SDS011;9418;52.694;13.294;2024-02-15T07:33:47;16.90;;;8.87;;
18576;SDS011;9418;52.694;13.294;2024-02-15T07:36:17;9.40;;;8.50;;
18576;SDS011;9418;52.694;13.294;2024-02-15T07:38:44;8.87;;;8.03;;
18576;SDS011;9418;52.694;13.294;2024-02-15T07:41:13;10.10;;;9.10;;
18576;SDS011;9418;52.694;13.294;2024-02-15T07:43:40;8.67;;;7.97;;
18576;SDS011;9418;52.694;13.294;2024-02-15T07:46:06;8.77;;;7.20;;
18576;SDS011;9418;52.694;13.294;2024-02-15T07:48:33;9.20;;;7.87;;
18576;SDS011;9418;52.694;13.294;2024-02-15T07:51:01;10.50;;;6.93;;
18576;SDS011;9418;52.694;13.294;2024-02-15T07:53:28;7.90;;;6.90;;
18576;SDS011;9418;52.694;13.294;2024-02-15T07:55:56;7.17;;;6.53;;
18576;SDS011;9418;52.694;13.294;2024-02-15T07:58:23;8.27;;;7.07;;
18576;SDS011;9418;52.694;13.294;2024-02-15T08:00:49;7.10;;;6.40;;
18576;SDS011;9418;52.694;13.294;2024-02-15T08:03:16;6.97;;;6.37;;
18576;SDS011;9418;52.694;13.294;2024-02-15T08:05:43;6.87;;;6.27;;
18576;SDS011;9418;52.694;13.294;2024-02-15T08:08:11;7.63;;;6.83;;
18576;SDS011;9418;52.694;13.294;2024-02-15T08:10:37;16.20;;;6.77;;
18576;SDS011;9418;52.694;13.294;2024-02-15T08:13:04;7.03;;;6.43;;
18576;SDS011;9418;52.694;13.294;2024-02-15T08:15:31;8.10;;;7.03;;
18576;SDS011;9418;52.694;13.294;2024-02-15T08:17:58;7.90;;;6.00;;
18576;SDS011;9418;52.694;13.294;2024-02-15T08:20:25;7.13;;;6.53;;
18576;SDS011;9418;52.694;13.294;2024-02-15T08:22:56;8.53;;;6.67;;
18576;SDS011;9418;52.694;13.294;2024-02-15T08:25:25;7.30;;;6.70;;
18576;SDS011;9418;52.694;13.294;2024-02-15T08:27:52;6.63;;;6.03;;
18576;SDS011;9418;52.694;13.294;2024-02-15T08:30:18;7.53;;;6.70;;
18576;SDS011;9418;52.694;13.294;2024-02-15T08:32:45;7.60;;;6.90;;
18576;SDS011;9418;52.694;13.294;2024-02-15T08:35:12;7.70;;;7.03;;
18576;SDS011;9418;52.694;13.294;2024-02-15T08:37:40;8.30;;;7.50;;
18576;SDS011;9418;52.694;13.294;2024-02-15T08:40:08;7.80;;;7.10;;
18576;SDS011;9418;52.694;13.294;2024-02-15T08:42:38;9.40;;;7.37;;
18576;SDS011;9418;52.694;13.294;2024-02-15T08:45:06;7.80;;;7.10;;
18576;SDS011;9418;52.694;13.294;2024-02-15T08:47:34;8.23;;;7.53;;
18576;SDS011;9418;52.694;13.294;2024-02-15T08:50:03;8.90;;;6.30;;
18576;SDS011;9418;52.694;13.294;2024-02-15T08:52:30;6.93;;;6.27;;
18576;SDS011;9418;52.694;13.294;2024-02-15T08:54:57;7.07;;;6.30;;
18576;SDS011;9418;52.694;13.294;2024-02-15T08:57:25;7.67;;;6.63;;
18576;SDS011;9418;52.694;13.294;2024-02-15T08:59:53;7.13;;;6.50;;
18576;SDS011;9418;52.694;13.294;2024-02-15T09:02:20;7.73;;;6.93;;
18576;SDS011;9418;52.694;13.294;2024-02-15T09:04:46;7.70;;;6.90;;
18576;SDS011;9418;52.694;13.294;2024-02-15T09:07:13;8.60;;;7.67;;
18576;SDS011;9418;52.694;13.294;2024-02-15T09:09:40;7.17;;;6.47;;
18576;SDS011;9418;52.694;13.294;2024-02-15T09:12:07;8.57;;;7.10;;
18576;SDS011;9418;52.694;13.294;2024-02-15T09:14:34;8.90;;;7.60;;
18576;SDS011;9418;52.694;13.294;2024-02-15T09:17:03;8.37;;;7.57;;
18576;SDS011;9418;52.694;13.294;2024-02-15T09:19:32;8.20;;;7.20;;
18576;SDS011;9418;52.694;13.294;2024-02-15T09:21:59;7.93;;;6.80;;
18576;SDS011;9418;52.694;13.294;2024-02-15T09:24:26;7.57;;;6.77;;
18576;SDS011;9418;52.694;13.294;2024-02-15T09:26:53;6.90;;;6.30;;
18576;SDS011;9418;52.694;13.294;2024-02-15T09:29:20;10.30;;;6.27;;
18576;SDS011;9418;52.694;13.294;2024-02-15T09:31:47;8.13;;;6.43;;
18576;SDS011;9418;52.694;13.294;2024-02-15T09:34:15;6.97;;;6.13;;
18576;SDS011;9418;52.694;13.294;2024-02-15T09:36:42;6.50;;;5.90;;
18576;SDS011;9418;52.694;13.294;2024-02-15T09:39:08;13.93;;;6.33;;
18576;SDS011;9418;52.694;13.294;2024-02-15T09:41:39;6.20;;;5.70;;
18576;SDS011;9418;52.694;13.294;2024-02-15T09:44:07;8.00;;;6.13;;
18576;SDS011;9418;52.694;13.294;2024-02-15T09:46:34;6.43;;;5.93;;
18576;SDS011;9418;52.694;13.294;2024-02-15T09:49:03;5.07;;;4.53;;
18576;SDS011;9418;52.694;13.294;2024-02-15T09:51:33;7.57;;;5.60;;
18576;SDS011;9418;52.694;13.294;2024-02-15T09:54:00;5.77;;;5.27;;
18576;SDS011;9418;52.694;13.294;2024-02-15T09:56:27;6.40;;;5.57;;
18576;SDS011;9418;52.694;13.294;2024-02-15T09:58:56;6.20;;;5.37;;
18576;SDS011;9418;52.694;13.294;2024-02-15T10:01:25;5.83;;;5.30;;
18576;SDS011;9418;52.694;13.294;2024-02-15T10:03:56;8.13;;;5.60;;
18576;SDS011;9418;52.694;13.294;2024-02-15T10:06:24;7.07;;;5.83;;
18576;SDS011;9418;52.694;13.294;2024-02-15T10:08:53;7.83;;;5.77;;
18576;SDS011;9418;52.694;13.294;2024-02-15T10:11:22;7.33;;;6.17;;
18576;SDS011;9418;52.694;13.294;2024-02-15T10:13:48;5.33;;;4.83;;
18576;SDS011;9418;52.694;13.294;2024-02-15T10:16:15;5.70;;;5.00;;
18576;SDS011;9418;52.694;13.294;2024-02-15T10:18:43;6.97;;;5.93;;
18576;SDS011;9418;52.694;13.294;2024-02-15T10:21:23;5.70;;;5.10;;
18576;SDS011;9418;52.694;13.294;2024-02-15T10:24:03;9.53;;;5.10;;
18576;SDS011;9418;52.694;13.294;2024-02-15T10:26:31;5.40;;;4.97;;
18576;SDS011;9418;52.694;13.294;2024-02-15T10:29:06;6.47;;;5.07;;
18576;SDS011;9418;52.694;13.294;2024-02-15T10:31:36;6.30;;;4.67;;
18576;SDS011;9418;52.694;13.294;2024-02-15T10:34:05;4.83;;;4.40;;
18576;SDS011;9418;52.694;13.294;2024-02-15T10:36:33;5.10;;;4.60;;
18576;SDS011;9418;52.694;13.294;2024-02-15T10:41:46;10.03;;;4.53;;
18576;SDS011;9418;52.694;13.294;2024-02-15T10:44:15;5.30;;;4.80;;
18576;SDS011;9418;52.694;13.294;2024-02-15T10:46:44;6.23;;;4.70;;
18576;SDS011;9418;52.694;13.294;2024-02-15T10:49:15;4.73;;;4.10;;
18576;SDS011;9418;52.694;13.294;2024-02-15T10:51:43;5.00;;;4.60;;
18576;SDS011;9418;52.694;13.294;2024-02-15T10:54:11;5.03;;;4.33;;
18576;SDS011;9418;52.694;13.294;2024-02-15T10:56:41;7.70;;;4.77;;
18576;SDS011;9418;52.694;13.294;2024-02-15T10:59:16;6.23;;;4.43;;
18576;SDS011;9418;52.694;13.294;2024-02-15T11:01:44;5.93;;;5.33;;
18576;SDS011;9418;52.694;13.294;2024-02-15T11:04:14;4.50;;;4.20;;
18576;SDS011;9418;52.694;13.294;2024-02-15T11:06:42;5.33;;;4.83;;
18576;SDS011;9418;52.694;13.294;2024-02-15T11:09:09;4.60;;;4.20;;
18576;SDS011;9418;52.694;13.294;2024-02-15T11:11:38;4.43;;;4.00;;
18576;SDS011;9418;52.694;13.294;2024-02-15T11:14:22;7.53;;;4.63;;
18576;SDS011;9418;52.694;13.294;2024-02-15T11:16:49;6.40;;;3.87;;
18576;SDS011;9418;52.694;13.294;2024-02-15T11:22:11;5.20;;;4.70;;
18576;SDS011;9418;52.694;13.294;2024-02-15T11:24:45;4.40;;;4.10;;
18576;SDS011;9418;52.694;13.294;2024-02-15T11:27:15;4.57;;;4.17;;
18576;SDS011;9418;52.694;13.294;2024-02-15T11:29:52;6.30;;;4.10;;
18576;SDS011;9418;52.694;13.294;2024-02-15T11:32:36;4.57;;;4.17;;
18576;SDS011;9418;52.694;13.294;2024-02-15T11:35:05;6.33;;;3.90;;
18576;SDS011;9418;52.694;13.294;2024-02-15T11:37:49;4.30;;;3.90;;
18576;SDS011;9418;52.694;13.294;2024-02-15T11:40:26;4.63;;;3.87;;
18576;SDS011;9418;52.694;13.294;2024-02-15T11:42:56;9.83;;;4.50;;
18576;SDS011;9418;52.694;13.294;2024-02-15T11:45:24;6.93;;;3.67;;
18576;SDS011;9418;52.694;13.294;2024-02-15T11:47:57;3.50;;;3.13;;
18576;SDS011;9418;52.694;13.294;2024-02-15T11:50:26;6.67;;;3.97;;
18576;SDS011;9418;52.694;13.294;2024-02-15T11:53:01;3.77;;;3.50;;
18576;SDS011;9418;52.694;13.294;2024-02-15T11:55:31;4.80;;;4.40;;
18576;SDS011;9418;52.694;13.294;2024-02-15T11:57:59;3.60;;;3.30;;
18576;SDS011;9418;52.694;13.294;2024-02-15T12:00:30;4.27;;;3.80;;
18576;SDS011;9418;52.694;13.294;2024-02-15T12:03:15;5.00;;;3.87;;
18576;SDS011;9418;52.694;13.294;2024-02-15T12:06:01;5.57;;;4.00;;
18576;SDS011;9418;52.694;13.294;2024-02-15T12:08:45;4.03;;;3.80;;
18576;SDS011;9418;52.694;13.294;2024-02-15T12:11:39;4.50;;;4.10;;
18576;SDS011;9418;52.694;13.294;2024-02-15T12:14:25;5.77;;;4.40;;
18576;SDS011;9418;52.694;13.294;2024-02-15T12:17:09;5.30;;;4.80;;
18576;SDS011;9418;52.694;13.294;2024-02-15T12:19:55;7.00;;;4.47;;
18576;SDS011;9418;52.694;13.294;2024-02-15T12:22:23;8.53;;;3.90;;
18576;SDS011;9418;52.694;13.294;2024-02-15T12:24:53;5.77;;;4.27;;
18576;SDS011;9418;52.694;13.294;2024-02-15T12:27:20;6.67;;;4.77;;
18576;SDS011;9418;52.694;13.294;2024-02-15T12:29:53;9.33;;;5.03;;
18576;SDS011;9418;52.694;13.294;2024-02-15T12:32:21;8.93;;;4.40;;
18576;SDS011;9418;52.694;13.294;2024-02-15T12:34:49;5.57;;;3.80;;
18576;SDS011;9418;52.694;13.294;2024-02-15T12:37:17;6.33;;;5.07;;
18576;SDS011;9418;52.694;13.294;2024-02-15T12:39:45;6.40;;;5.00;;
18576;SDS011;9418;52.694;13.294;2024-02-15T12:42:12;5.53;;;4.70;;
18576;SDS011;9418;52.694;13.294;2024-02-15T12:44:41;4.80;;;3.83;;
18576;SDS011;9418;52.694;13.294;2024-02-15T12:47:18;6.50;;;5.10;;
18576;SDS011;9418;52.694;13.294;2024-02-15T12:49:45;4.70;;;3.80;;
18576;SDS011;9418;52.694;13.294;2024-02-15T12:55:07;4.10;;;3.40;;
18576;SDS011;9418;52.694;13.294;2024-02-15T12:57:36;4.90;;;3.80;;
18576;SDS011;9418;52.694;13.294;2024-02-15T13:00:05;4.83;;;3.53;;
18576;SDS011;9418;52.694;13.294;2024-02-15T13:02:37;5.43;;;3.93;;
18576;SDS011;9418;52.694;13.294;2024-02-15T13:05:04;7.20;;;3.80;;
18576;SDS011;9418;52.694;13.294;2024-02-15T13:07:33;7.90;;;4.20;;
18576;SDS011;9418;52.694;13.294;2024-02-15T13:09:59;4.40;;;3.20;;
18576;SDS011;9418;52.694;13.294;2024-02-15T13:12:26;4.27;;;3.67;;
18576;SDS011;9418;52.694;13.294;2024-02-15T13:14:53;4.20;;;3.67;;
18576;SDS011;9418;52.694;13.294;2024-02-15T13:17:20;4.20;;;3.50;;
18576;SDS011;9418;52.694;13.294;2024-02-15T13:19:48;4.83;;;3.30;;
18576;SDS011;9418;52.694;13.294;2024-02-15T13:22:15;4.33;;;3.20;;
18576;SDS011;9418;52.694;13.294;2024-02-15T13:24:43;5.10;;;2.90;;
18576;SDS011;9418;52.694;13.294;2024-02-15T13:27:10;4.13;;;3.03;;
18576;SDS011;9418;52.694;13.294;2024-02-15T13:29:37;8.13;;;3.50;;
18576;SDS011;9418;52.694;13.294;2024-02-15T13:32:05;5.70;;;3.17;;
18576;SDS011;9418;52.694;13.294;2024-02-15T13:34:31;4.87;;;3.10;;
18576;SDS011;9418;52.694;13.294;2024-02-15T13:37:00;4.50;;;2.90;;
18576;SDS011;9418;52.694;13.294;2024-02-15T13:39:29;6.00;;;2.60;;
18576;SDS011;9418;52.694;13.294;2024-02-15T13:41:58;3.13;;;2.50;;
18576;SDS011;9418;52.694;13.294;2024-02-15T13:44:26;6.03;;;3.90;;
18576;SDS011;9418;52.694;13.294;2024-02-15T13:46:52;3.00;;;2.80;;
18576;SDS011;9418;52.694;13.294;2024-02-15T13:49:20;5.93;;;3.03;;
18576;SDS011;9418;52.694;13.294;2024-02-15T13:51:47;2.90;;;2.70;;
18576;SDS011;9418;52.694;13.294;2024-02-15T13:54:18;2.63;;;2.43;;
18576;SDS011;9418;52.694;13.294;2024-02-15T13:56:45;4.90;;;2.70;;
18576;SDS011;9418;52.694;13.294;2024-02-15T13:59:12;4.03;;;3.63;;
18576;SDS011;9418;52.694;13.294;2024-02-15T14:01:38;4.10;;;3.00;;
18576;SDS011;9418;52.694;13.294;2024-02-15T14:04:10;5.33;;;2.80;;
18576;SDS011;9418;52.694;13.294;2024-02-15T14:06:37;3.97;;;3.20;;
18576;SDS011;9418;52.694;13.294;2024-02-15T14:09:05;4.57;;;3.23;;
18576;SDS011;9418;52.694;13.294;2024-02-15T14:11:33;3.03;;;2.60;;
18576;SDS011;9418;52.694;13.294;2024-02-15T14:13:59;2.83;;;2.50;;
18576;SDS011;9418;52.694;13.294;2024-02-15T14:16:26;2.87;;;2.67;;
18576;SDS011;9418;52.694;13.294;2024-02-15T14:18:54;6.20;;;2.43;;
18576;SDS011;9418;52.694;13.294;2024-02-15T14:21:20;3.00;;;2.80;;
18576;SDS011;9418;52.694;13.294;2024-02-15T14:23:47;7.50;;;2.90;;
18576;SDS011;9418;52.694;13.294;2024-02-15T14:26:14;2.40;;;2.13;;
18576;SDS011;9418;52.694;13.294;2024-02-15T14:28:43;6.50;;;2.80;;
18576;SDS011;9418;52.694;13.294;2024-02-15T14:31:10;2.43;;;2.23;;
18576;SDS011;9418;52.694;13.294;2024-02-15T14:33:55;2.27;;;2.17;;
18576;SDS011;9418;52.694;13.294;2024-02-15T14:36:21;5.43;;;2.97;;
18576;SDS011;9418;52.694;13.294;2024-02-15T14:38:48;3.00;;;2.00;;
18576;SDS011;9418;52.694;13.294;2024-02-15T14:41:16;2.97;;;2.70;;
18576;SDS011;9418;52.694;13.294;2024-02-15T14:43:44;3.70;;;2.60;;
18576;SDS011;9418;52.694;13.294;2024-02-15T14:46:11;2.47;;;2.20;;
18576;SDS011;9418;52.694;13.294;2024-02-15T14:48:38;2.20;;;2.00;;
18576;SDS011;9418;52.694;13.294;2024-02-15T14:51:05;2.40;;;1.73;;
18576;SDS011;9418;52.694;13.294;2024-02-15T14:53:34;3.33;;;2.40;;
18576;SDS011;9418;52.694;13.294;2024-02-15T14:56:00;2.70;;;2.20;;
18576;SDS011;9418;52.694;13.294;2024-02-15T14:58:29;4.00;;;2.33;;
18576;SDS011;9418;52.694;13.294;2024-02-15T15:00:57;3.40;;;2.37;;
18576;SDS011;9418;52.694;13.294;2024-02-15T15:03:24;2.03;;;1.87;;